createdAt,value
2019-05-19T00:02:22.904Z,9.73
2019-05-19T00:04:53.641Z,9.10
2019-05-19T00:07:24.073Z,9.20
2019-05-19T00:09:54.951Z,9.83
2019-05-19T00:12:26.149Z,9.67
2019-05-19T00:14:56.606Z,10.17
2019-05-19T00:17:27.095Z,8.37
2019-05-19T00:19:57.897Z,9.53
2019-05-19T00:22:28.345Z,10.03
2019-05-19T00:24:58.828Z,9.37
2019-05-19T00:27:29.665Z,10.80
2019-05-19T00:30:00.102Z,9.47
2019-05-19T00:32:30.578Z,9.43
2019-05-19T00:35:02.303Z,9.87
2019-05-19T00:37:32.800Z,8.80
2019-05-19T00:40:03.336Z,9.17
2019-05-19T00:42:33.761Z,10.60
2019-05-19T00:45:05.376Z,10.20
2019-05-19T00:47:35.871Z,10.57
2019-05-19T00:50:07.187Z,11.07
2019-05-19T00:52:37.958Z,11.10
2019-05-19T00:55:09.375Z,11.27
2019-05-19T00:57:39.818Z,10.63
2019-05-19T01:00:11.198Z,12.17
2019-05-19T01:02:41.728Z,11.57
2019-05-19T01:05:13.067Z,12.20
2019-05-19T01:07:43.512Z,11.03
2019-05-19T01:10:15.247Z,11.17
2019-05-19T01:12:46.250Z,10.97
2019-05-19T01:15:17.749Z,12.53
2019-05-19T01:17:48.187Z,11.43
2019-05-19T01:20:19.023Z,12.00
2019-05-19T01:22:49.506Z,12.90
2019-05-19T01:25:19.941Z,13.17
2019-05-19T01:27:50.390Z,12.70
2019-05-19T01:30:21.194Z,11.40
2019-05-19T01:32:51.626Z,12.50
2019-05-19T01:35:22.070Z,12.13
2019-05-19T01:37:52.563Z,14.33
2019-05-19T01:40:23.387Z,12.10
2019-05-19T01:42:53.875Z,13.70
2019-05-19T01:45:25.986Z,13.90
2019-05-19T01:47:56.423Z,13.57
2019-05-19T01:50:27.554Z,13.80
2019-05-19T01:52:58.159Z,12.23
2019-05-19T01:55:28.594Z,11.90
2019-05-19T01:57:59.394Z,13.93
2019-05-19T02:00:29.889Z,13.47
2019-05-19T02:03:00.372Z,13.83
2019-05-19T02:05:30.810Z,13.50
2019-05-19T02:08:01.307Z,13.87
2019-05-19T02:10:32.867Z,13.73
2019-05-19T02:13:05.131Z,13.57
2019-05-19T02:15:35.487Z,13.00
2019-05-19T02:18:06.378Z,13.97
2019-05-19T02:20:36.819Z,12.97
2019-05-19T02:23:07.318Z,13.17
2019-05-19T02:25:37.758Z,14.03
2019-05-19T02:28:08.507Z,12.13
2019-05-19T02:30:39.580Z,13.50
2019-05-19T02:33:10.019Z,13.60
2019-05-19T02:35:40.476Z,10.53
2019-05-19T02:38:11.257Z,10.80
2019-05-19T02:40:43.588Z,11.73
2019-05-19T02:43:15.625Z,11.00
2019-05-19T02:45:49.020Z,10.60
2019-05-19T02:48:20.695Z,12.13
2019-05-19T02:50:53.484Z,13.40
2019-05-19T02:53:26.286Z,13.13
2019-05-19T02:55:57.328Z,13.73
2019-05-19T02:58:27.912Z,14.97
2019-05-19T03:00:58.357Z,13.03
2019-05-19T03:03:28.855Z,14.20
2019-05-19T03:05:59.686Z,12.23
2019-05-19T03:08:30.155Z,12.10
2019-05-19T03:11:01.381Z,12.60
2019-05-19T03:13:32.287Z,12.27
2019-05-19T03:16:02.722Z,13.73
2019-05-19T03:18:33.170Z,12.37
2019-05-19T03:21:11.273Z,12.90
2019-05-19T03:23:36.622Z,14.90
2019-05-19T03:26:07.504Z,12.53
2019-05-19T03:28:37.944Z,14.43
2019-05-19T03:31:30.172Z,15.03
2019-05-19T03:34:00.693Z,15.17
2019-05-19T03:36:31.118Z,14.53
2019-05-19T03:39:01.992Z,15.57
2019-05-19T03:41:32.419Z,14.63
2019-05-19T03:44:02.888Z,15.70
2019-05-19T03:46:33.383Z,16.23
2019-05-19T03:49:03.828Z,16.10
2019-05-19T03:51:34.262Z,14.40
2019-05-19T03:54:04.744Z,15.27
2019-05-19T03:56:35.188Z,14.53
2019-05-19T03:59:06.040Z,14.87
2019-05-19T04:01:36.539Z,16.07
2019-05-19T04:04:07.411Z,14.60
2019-05-19T04:06:38.215Z,14.53
2019-05-19T04:09:09.088Z,17.10
2019-05-19T04:11:39.541Z,15.90
2019-05-19T04:14:09.971Z,16.20
2019-05-19T04:16:40.825Z,15.77
2019-05-19T04:19:11.609Z,14.30
2019-05-19T04:21:48.720Z,15.60
2019-05-19T04:24:15.159Z,15.33
2019-05-19T04:26:45.634Z,17.40
2019-05-19T04:29:17.339Z,14.50
2019-05-19T04:31:47.827Z,16.53
2019-05-19T04:34:18.267Z,16.73
2019-05-19T04:36:48.709Z,16.50
2019-05-19T04:39:19.197Z,14.63
2019-05-19T04:41:50.103Z,14.90
2019-05-19T04:44:20.977Z,15.70
2019-05-19T04:46:51.828Z,17.90
2019-05-19T04:49:23.542Z,15.73
2019-05-19T04:52:05.965Z,14.67
2019-05-19T04:54:27.559Z,13.80
2019-05-19T04:56:58.156Z,13.83
2019-05-19T04:59:28.596Z,14.80
2019-05-19T05:01:59.091Z,16.83
2019-05-19T05:04:29.819Z,16.43
2019-05-19T05:07:00.682Z,15.67
2019-05-19T05:09:31.532Z,15.73
2019-05-19T05:12:01.976Z,15.90
2019-05-19T05:14:32.618Z,13.20
2019-05-19T05:17:03.115Z,12.97
2019-05-19T05:19:33.948Z,12.87
2019-05-19T05:22:04.389Z,15.40
2019-05-19T05:24:34.876Z,14.73
2019-05-19T05:27:06.383Z,13.47
2019-05-19T05:29:36.820Z,12.53
2019-05-19T05:32:07.313Z,13.83
2019-05-19T05:34:38.059Z,14.10
2019-05-19T05:37:08.866Z,15.20
2019-05-19T05:39:39.706Z,14.60
2019-05-19T05:42:10.146Z,16.63
2019-05-19T05:44:40.583Z,14.40
2019-05-19T05:47:11.135Z,16.40
2019-05-19T05:49:41.579Z,15.57
2019-05-19T05:52:12.810Z,16.27
2019-05-19T05:54:43.289Z,16.40
2019-05-19T05:57:13.727Z,15.87
2019-05-19T05:59:45.198Z,16.23
2019-05-19T06:02:15.981Z,15.73
2019-05-19T06:04:46.763Z,15.67
2019-05-19T06:07:17.198Z,15.07
2019-05-19T06:09:48.077Z,14.63
2019-05-19T06:12:18.880Z,14.57
2019-05-19T06:14:49.319Z,15.63
2019-05-19T06:17:20.554Z,17.03
2019-05-19T06:19:51.398Z,13.40
2019-05-19T06:22:22.230Z,15.23
2019-05-19T06:24:53.010Z,13.97
2019-05-19T06:27:23.841Z,14.23
2019-05-19T06:29:54.635Z,14.73
2019-05-19T06:32:47.601Z,16.57
2019-05-19T06:35:19.024Z,13.83
2019-05-19T06:37:49.924Z,13.60
2019-05-19T06:40:20.403Z,13.90
2019-05-19T06:42:51.659Z,14.50
2019-05-19T06:45:22.521Z,14.50
2019-05-19T06:47:53.393Z,15.00
2019-05-19T06:50:23.917Z,13.53
2019-05-19T06:52:54.658Z,12.77
2019-05-19T06:55:25.606Z,14.50
2019-05-19T06:57:56.700Z,13.93
2019-05-19T07:00:27.533Z,14.80
2019-05-19T07:02:58.049Z,14.27
2019-05-19T07:05:28.491Z,15.17
2019-05-19T07:07:58.918Z,15.83
2019-05-19T07:10:29.791Z,14.07
2019-05-19T07:13:00.948Z,14.40
2019-05-19T07:15:31.982Z,14.03
2019-05-19T07:18:02.512Z,12.90
2019-05-19T07:20:32.967Z,13.43
2019-05-19T07:23:04.383Z,13.17
2019-05-19T07:25:34.899Z,12.03
2019-05-19T07:28:05.678Z,12.63
2019-05-19T07:30:36.132Z,13.13
2019-05-19T07:33:06.639Z,12.87
2019-05-19T07:35:37.442Z,12.33
2019-05-19T07:38:07.904Z,13.23
2019-05-19T07:40:38.404Z,13.10
2019-05-19T07:43:09.113Z,12.40
2019-05-19T07:45:39.552Z,13.43
2019-05-19T07:48:10.617Z,13.40
2019-05-19T07:50:41.460Z,13.37
2019-05-19T07:53:11.895Z,12.87
2019-05-19T07:55:42.390Z,12.80
2019-05-19T07:58:13.388Z,13.40
2019-05-19T08:00:43.823Z,13.93
2019-05-19T08:03:14.926Z,14.10
2019-05-19T08:05:45.701Z,13.97
2019-05-19T08:08:16.599Z,14.63
2019-05-19T08:10:47.142Z,14.37
2019-05-19T08:13:17.737Z,13.90
2019-05-19T08:15:49.249Z,15.83
2019-05-19T08:18:19.747Z,14.40
2019-05-19T08:20:50.590Z,16.03
2019-05-19T08:23:21.040Z,16.63
2019-05-19T08:25:52.383Z,17.43
2019-05-19T08:28:23.154Z,16.63
2019-05-19T08:30:54.662Z,16.83
2019-05-19T08:33:26.669Z,17.83
2019-05-19T08:35:57.517Z,16.50
2019-05-19T08:38:28.659Z,13.93
2019-05-19T08:40:59.249Z,15.20
2019-05-19T08:43:29.695Z,14.23
2019-05-19T08:46:00.526Z,15.63
2019-05-19T08:48:31.339Z,13.90
2019-05-19T08:51:01.815Z,13.77
2019-05-19T08:53:32.263Z,16.17
2019-05-19T08:56:02.760Z,14.43
2019-05-19T08:58:33.193Z,14.87
2019-05-19T09:01:03.648Z,13.43
2019-05-19T09:03:34.143Z,14.03
2019-05-19T09:06:04.618Z,13.72
2019-05-19T09:08:35.352Z,13.85
2019-05-19T09:11:06.158Z,15.63
2019-05-19T09:13:36.595Z,14.98
2019-05-19T09:16:07.037Z,15.70
2019-05-19T09:18:38.475Z,15.35
2019-05-19T09:21:09.012Z,15.08
2019-05-19T09:23:40.222Z,14.90
2019-05-19T09:26:11.033Z,15.10
2019-05-19T09:28:41.561Z,14.80
2019-05-19T09:31:12.358Z,16.10
2019-05-19T09:33:42.851Z,12.70
2019-05-19T09:36:14.751Z,13.93
2019-05-19T09:38:45.835Z,12.85
2019-05-19T09:41:16.306Z,13.72
2019-05-19T09:43:46.757Z,12.82
2019-05-19T09:46:17.197Z,11.93
2019-05-19T09:48:49.364Z,13.55
2019-05-19T09:51:20.182Z,13.55
2019-05-19T09:53:51.034Z,12.73
2019-05-19T09:56:21.524Z,12.37
2019-05-19T09:58:51.966Z,13.95
2019-05-19T10:01:22.402Z,13.10
2019-05-19T10:03:52.892Z,12.45
2019-05-19T10:06:23.808Z,11.78
2019-05-19T10:08:57.570Z,13.10
2019-05-19T10:12:06.921Z,12.50
2019-05-19T10:14:38.171Z,12.00
2019-05-19T10:17:09.013Z,11.70
2019-05-19T10:19:39.802Z,12.47
2019-05-19T10:22:10.249Z,11.22
2019-05-19T10:24:40.723Z,12.88
2019-05-19T10:27:11.213Z,12.07
2019-05-19T10:29:41.671Z,13.50
2019-05-19T10:32:12.796Z,14.55
2019-05-19T10:34:43.291Z,14.53
2019-05-19T10:37:14.804Z,15.28
2019-05-19T10:39:45.712Z,14.68
2019-05-19T10:42:16.670Z,14.58
2019-05-19T10:44:47.120Z,15.13
2019-05-19T10:47:17.586Z,15.05
2019-05-19T10:49:48.080Z,15.30
2019-05-19T10:52:18.583Z,15.23
2019-05-19T10:54:49.873Z,14.98
2019-05-19T10:57:20.746Z,14.80
2019-05-19T10:59:51.202Z,16.15
2019-05-19T11:02:21.650Z,15.28
2019-05-19T11:04:52.531Z,14.70
2019-05-19T11:07:23.042Z,15.18
2019-05-19T11:09:53.527Z,15.08
2019-05-19T11:12:24.026Z,15.15
2019-05-19T11:14:54.456Z,13.93
2019-05-19T11:17:25.195Z,14.18
2019-05-19T11:19:56.089Z,15.83
2019-05-19T11:22:27.166Z,14.13
2019-05-19T11:24:58.289Z,14.38
2019-05-19T11:27:29.207Z,14.83
2019-05-19T11:30:00.004Z,13.38
2019-05-19T11:32:30.444Z,15.25
2019-05-19T11:35:01.708Z,13.28
2019-05-19T11:37:32.171Z,14.90
2019-05-19T11:40:02.610Z,13.62
2019-05-19T11:42:33.208Z,14.70
2019-05-19T11:45:04.119Z,14.78
2019-05-19T11:47:35.061Z,14.65
2019-05-19T11:50:06.099Z,13.85
2019-05-19T11:52:36.628Z,13.88
2019-05-19T11:55:07.117Z,15.00
2019-05-19T11:57:37.955Z,13.40
2019-05-19T12:00:08.643Z,14.03
2019-05-19T12:02:39.084Z,12.90
2019-05-19T12:05:10.119Z,11.60
2019-05-19T12:07:40.552Z,12.73
2019-05-19T12:10:11.217Z,13.15
2019-05-19T12:12:41.724Z,12.80
2019-05-19T12:15:12.763Z,12.18
2019-05-19T12:17:46.022Z,14.60
2019-05-19T12:20:16.824Z,13.85
2019-05-19T12:22:47.274Z,13.53
2019-05-19T12:25:17.735Z,12.10
2019-05-19T12:27:48.219Z,13.13
2019-05-19T12:30:20.039Z,12.78
2019-05-19T12:32:50.494Z,11.20
2019-05-19T12:35:21.274Z,12.80
2019-05-19T12:37:51.707Z,13.38
2019-05-19T12:40:22.831Z,11.93
2019-05-19T12:42:53.576Z,11.45
2019-05-19T12:45:24.149Z,12.68
2019-05-19T12:47:54.667Z,11.78
2019-05-19T12:50:25.592Z,12.88
2019-05-19T12:52:56.344Z,12.55
2019-05-19T12:55:27.070Z,12.20
2019-05-19T12:57:57.795Z,11.10
2019-05-19T13:00:28.638Z,11.70
2019-05-19T13:02:59.084Z,11.22
2019-05-19T13:05:29.590Z,11.40
2019-05-19T13:08:00.456Z,11.38
2019-05-19T13:10:31.282Z,10.68
2019-05-19T13:13:02.505Z,10.82
2019-05-19T13:15:33.299Z,9.05
2019-05-19T13:18:03.738Z,10.15
2019-05-19T13:20:35.275Z,10.03
2019-05-19T13:23:06.296Z,10.43
2019-05-19T13:25:36.755Z,9.28
2019-05-19T13:28:07.562Z,9.63
2019-05-19T13:30:38.401Z,10.25
2019-05-19T13:33:08.852Z,8.40
2019-05-19T13:35:39.325Z,8.68
2019-05-19T13:38:09.762Z,9.70
2019-05-19T13:40:42.317Z,9.20
2019-05-19T13:43:13.599Z,12.20
2019-05-19T13:45:44.352Z,9.43
2019-05-19T13:48:15.640Z,9.23
2019-05-19T13:50:46.520Z,10.00
2019-05-19T13:53:17.286Z,9.85
2019-05-19T13:55:47.712Z,8.78
2019-05-19T13:58:18.258Z,7.87
2019-05-19T14:00:48.747Z,9.15
2019-05-19T14:03:19.172Z,9.35
2019-05-19T14:05:50.080Z,9.83
2019-05-19T14:08:20.505Z,10.00
2019-05-19T14:10:50.935Z,9.98
2019-05-19T14:13:21.425Z,8.78
2019-05-19T14:15:52.227Z,8.23
2019-05-19T14:18:23.934Z,8.73
2019-05-19T14:20:55.082Z,9.05
2019-05-19T14:23:25.695Z,7.95
2019-05-19T14:25:56.126Z,8.45
2019-05-19T14:28:26.780Z,8.63
2019-05-19T14:30:57.218Z,9.50
2019-05-19T14:33:28.052Z,9.45
2019-05-19T14:35:58.927Z,9.88
2019-05-19T14:38:29.727Z,11.00
2019-05-19T14:41:00.874Z,10.15
2019-05-19T14:43:31.375Z,10.90
2019-05-19T14:46:01.853Z,9.85
2019-05-19T14:48:32.287Z,10.63
2019-05-19T14:51:03.193Z,10.45
2019-05-19T14:53:33.640Z,11.85
2019-05-19T14:56:04.079Z,11.78
2019-05-19T14:58:34.565Z,11.80
2019-05-19T15:01:05.013Z,13.95
2019-05-19T15:03:35.472Z,35.40
2019-05-19T15:06:06.178Z,42.45
2019-05-19T15:08:36.653Z,109.55
2019-05-19T15:11:07.407Z,79.37
2019-05-19T15:13:37.973Z,82.75
2019-05-19T15:16:08.940Z,121.47
2019-05-19T15:18:40.215Z,41.05
2019-05-19T15:21:10.733Z,117.03
2019-05-19T15:23:41.559Z,49.83
2019-05-19T15:26:12.398Z,24.12
2019-05-19T15:28:42.884Z,23.32
2019-05-19T15:31:13.320Z,27.17
2019-05-19T15:33:44.707Z,35.52
2019-05-19T15:36:15.235Z,30.68
2019-05-19T15:38:45.674Z,41.65
2019-05-19T15:41:17.912Z,38.80
2019-05-19T15:43:48.830Z,54.30
2019-05-19T15:46:19.288Z,34.88
2019-05-19T15:48:49.731Z,40.23
2019-05-19T15:51:28.573Z,45.25
2019-05-19T15:53:52.556Z,39.08
2019-05-19T15:56:23.328Z,24.75
2019-05-19T15:58:53.934Z,26.68
2019-05-19T16:01:24.405Z,41.58
2019-05-19T16:03:55.156Z,25.43
2019-05-19T16:06:26.547Z,20.45
2019-05-19T16:08:56.986Z,33.35
2019-05-19T16:11:27.435Z,15.95
2019-05-19T16:13:57.943Z,22.55
2019-05-19T16:16:28.385Z,24.05
2019-05-19T16:18:59.510Z,20.57
2019-05-19T16:21:30.277Z,14.50
2019-05-19T16:24:00.723Z,13.88
2019-05-19T16:26:31.176Z,13.22
2019-05-19T16:29:01.681Z,18.87
2019-05-19T16:31:32.123Z,15.25
2019-05-19T16:34:03.314Z,17.55
2019-05-19T16:36:35.859Z,16.50
2019-05-19T16:39:07.788Z,13.78
2019-05-19T16:41:38.226Z,12.10
2019-05-19T16:44:08.746Z,19.80
2019-05-19T16:46:39.181Z,24.02
2019-05-19T16:49:09.667Z,20.32
2019-05-19T16:51:40.164Z,20.30
2019-05-19T16:54:16.131Z,16.55
2019-05-19T16:56:47.314Z,21.87
2019-05-19T16:59:17.768Z,16.20
2019-05-19T17:01:48.247Z,13.05
2019-05-19T17:04:18.879Z,17.50
2019-05-19T17:06:49.326Z,13.90
2019-05-19T17:09:20.206Z,13.70
2019-05-19T17:11:50.722Z,14.45
2019-05-19T17:14:21.574Z,13.18
2019-05-19T17:16:52.418Z,15.03
2019-05-19T17:19:25.264Z,12.53
2019-05-19T17:21:55.810Z,11.73
2019-05-19T17:24:27.361Z,11.05
2019-05-19T17:26:58.183Z,10.68
2019-05-19T17:29:28.678Z,11.50
2019-05-19T17:32:06.039Z,10.50
2019-05-19T17:34:33.644Z,11.38
2019-05-19T17:37:04.079Z,9.90
2019-05-19T17:39:34.851Z,10.53
2019-05-19T17:42:05.387Z,10.10
2019-05-19T17:44:36.272Z,9.60
2019-05-19T17:47:09.266Z,8.85
2019-05-19T17:49:40.048Z,9.35
2019-05-19T17:52:11.117Z,9.23
2019-05-19T17:54:42.012Z,9.00
2019-05-19T17:57:14.558Z,10.28
2019-05-19T17:59:48.118Z,9.48
2019-05-19T18:02:18.955Z,9.55
2019-05-19T18:04:49.459Z,9.03
2019-05-19T18:07:19.901Z,9.25
2019-05-19T18:09:50.369Z,9.73
2019-05-19T18:12:22.865Z,9.13
2019-05-19T18:14:53.722Z,9.10
2019-05-19T18:17:24.241Z,8.73
2019-05-19T18:19:55.058Z,8.63
2019-05-19T18:22:25.620Z,9.00
2019-05-19T18:24:56.703Z,9.50
2019-05-19T18:27:27.822Z,10.18
2019-05-19T18:29:58.444Z,9.43
2019-05-19T18:32:29.257Z,8.60
2019-05-19T18:35:00.071Z,8.30
2019-05-19T18:37:31.523Z,8.43
2019-05-19T18:40:03.265Z,7.80
2019-05-19T18:42:33.734Z,8.15
2019-05-19T18:45:07.578Z,8.28
2019-05-19T18:47:38.189Z,8.20
2019-05-19T18:50:08.872Z,7.63
2019-05-19T18:52:39.810Z,7.90
2019-05-19T18:55:11.948Z,9.63
2019-05-19T18:57:44.865Z,8.43
2019-05-19T19:00:23.930Z,8.63
2019-05-19T19:02:55.888Z,8.13
2019-05-19T19:05:28.636Z,7.50
2019-05-19T19:07:59.345Z,7.63
2019-05-19T19:10:29.979Z,7.90
2019-05-19T19:13:02.193Z,8.10
2019-05-19T19:15:32.635Z,7.97
2019-05-19T19:18:05.959Z,7.87
2019-05-19T19:20:36.617Z,9.63
2019-05-19T19:23:13.124Z,8.20
2019-05-19T19:25:46.624Z,8.30
2019-05-19T19:28:17.773Z,9.20
2019-05-19T19:30:48.289Z,8.00
2019-05-19T19:33:20.268Z,9.20
2019-05-19T19:35:50.813Z,7.53
2019-05-19T19:38:21.593Z,8.70
2019-05-19T19:40:54.344Z,8.23
2019-05-19T19:43:25.085Z,8.43
2019-05-19T19:45:55.504Z,8.27
2019-05-19T19:48:26.500Z,9.13
2019-05-19T19:50:58.501Z,9.10
2019-05-19T19:53:30.372Z,9.43
2019-05-19T19:56:01.634Z,10.60
2019-05-19T19:58:32.533Z,10.40
2019-05-19T20:01:06.355Z,9.87
2019-05-19T20:03:40.149Z,12.53
2019-05-19T20:06:09.342Z,12.10
2019-05-19T20:08:40.184Z,11.83
2019-05-19T20:11:11.252Z,11.23
2019-05-19T20:13:42.097Z,11.80
2019-05-19T20:16:14.005Z,11.60
2019-05-19T20:18:45.722Z,12.03
2019-05-19T20:21:17.878Z,13.43
2019-05-19T20:23:48.344Z,12.50
2019-05-19T20:26:18.827Z,12.40
2019-05-19T20:28:49.274Z,13.00
2019-05-19T20:31:19.718Z,12.90
2019-05-19T20:33:50.525Z,11.63
2019-05-19T20:36:21.029Z,11.50
2019-05-19T20:38:51.494Z,11.57
2019-05-19T20:41:21.982Z,12.03
2019-05-19T20:43:54.923Z,11.70
2019-05-19T20:46:26.885Z,11.93
2019-05-19T20:48:57.337Z,12.57
2019-05-19T20:51:27.794Z,11.90
2019-05-19T20:53:59.254Z,12.30
2019-05-19T20:56:30.549Z,12.37
2019-05-19T20:59:01.481Z,11.83
2019-05-19T21:01:32.062Z,11.40
2019-05-19T21:04:03.416Z,11.97
2019-05-19T21:06:35.242Z,12.73
2019-05-19T21:09:06.683Z,13.23
2019-05-19T21:11:37.637Z,12.60
2019-05-19T21:14:08.793Z,13.87
2019-05-19T21:16:39.225Z,12.30
2019-05-19T21:19:10.082Z,13.47
2019-05-19T21:21:40.907Z,11.80
2019-05-19T21:24:11.502Z,11.17
2019-05-19T21:26:42.394Z,11.93
2019-05-19T21:29:12.831Z,12.50
2019-05-19T21:31:43.268Z,11.00
2019-05-19T21:34:15.275Z,11.07
2019-05-19T21:36:46.058Z,12.17
2019-05-19T21:39:16.503Z,13.07
2019-05-19T21:41:47.405Z,12.23
2019-05-19T21:44:17.841Z,12.33
2019-05-19T21:46:48.293Z,12.73
2019-05-19T21:49:19.200Z,12.70
2019-05-19T21:51:50.038Z,12.67
2019-05-19T21:54:20.783Z,11.60
2019-05-19T21:56:51.571Z,11.90
2019-05-19T21:59:22.355Z,13.53
2019-05-19T22:01:53.391Z,13.37
2019-05-19T22:04:24.266Z,13.27
2019-05-19T22:07:02.741Z,13.10
2019-05-19T22:09:34.031Z,12.10
2019-05-19T22:12:04.866Z,12.73
2019-05-19T22:14:35.642Z,12.93
2019-05-19T22:17:07.394Z,12.93
2019-05-19T22:19:37.850Z,13.60
2019-05-19T22:22:08.685Z,13.67
2019-05-19T22:24:39.257Z,13.77
2019-05-19T22:27:09.726Z,14.13
2019-05-19T22:29:41.450Z,14.00
2019-05-19T22:32:11.955Z,13.20
2019-05-19T22:34:42.413Z,14.43
2019-05-19T22:37:13.536Z,13.43
2019-05-19T22:39:44.027Z,14.17
2019-05-19T22:42:14.475Z,13.63
2019-05-19T22:44:44.922Z,15.00
2019-05-19T22:47:17.204Z,14.87
2019-05-19T22:49:48.020Z,16.90
2019-05-19T22:52:18.463Z,13.80
2019-05-19T22:54:49.298Z,14.30
2019-05-19T22:57:20.156Z,13.60
2019-05-19T22:59:50.583Z,14.57
2019-05-19T23:02:21.075Z,14.97
2019-05-19T23:04:51.530Z,14.63
2019-05-19T23:07:21.974Z,15.20
2019-05-19T23:09:52.490Z,17.00
2019-05-19T23:12:23.367Z,15.40
2019-05-19T23:14:53.826Z,15.30
2019-05-19T23:17:24.909Z,17.87
2019-05-19T23:19:56.054Z,14.40
2019-05-19T23:22:27.083Z,13.10
2019-05-19T23:24:57.881Z,13.07
2019-05-19T23:27:28.329Z,13.67
2019-05-19T23:29:59.166Z,14.83
2019-05-19T23:32:29.775Z,17.20
2019-05-19T23:35:00.578Z,13.70
2019-05-19T23:37:31.448Z,14.37
2019-05-19T23:40:01.943Z,14.17
2019-05-19T23:42:32.383Z,16.07
2019-05-19T23:45:02.835Z,14.67
2019-05-19T23:47:33.620Z,14.63
2019-05-19T23:50:04.395Z,15.83
2019-05-19T23:52:34.875Z,14.50
2019-05-19T23:55:06.176Z,17.60
2019-05-19T23:57:36.611Z,15.43
